Latest Coastal Weather Observations for Low Rocky Point

IDT60701

Issued at 7:27 pm EDT Monday 26 January 2015 (issued every 10 minutes, with the page automatically refreshed every 10 minutes)

About coastal observations | Map of coastal stations | Coastal observations for TAS | Marine services | Other Formats
Station Details ID: 097080 Name: LOW ROCKY POINT Lat: -42.98 Lon: 145.50 Height: 34.0 m
Data from the previous 72 hours. | See also: Recent months at Low Rocky Point
Date/Time
EDT
Temp

°C
Wind Pressure Rain
since 9am
mm
Weather Cloud Vis
km
Sea
Height
m
Swell
Dir
 
Speed
knots
Gust
knots
hPa Trend Height
m
Period
s
Dir
26/07:00pm 13.9 WNW 13 16 1016.3 - 0.2 - - - - - - -
26/06:30pm 13.5 W 13 16 1016.2 - 0.2 - - - - - - -
26/06:00pm 15.4 W 14 17 1016.0 - 0.2 - - - - - - -
26/05:30pm 15.1 W 14 18 1016.1 - 0.2 - - - - - - -
26/05:00pm 16.0 W 15 19 1016.1 - 0.2 - - - - - - -
26/04:30pm 15.6 WNW 13 18 1016.1 - 0.2 - - - - - - -
26/04:00pm 15.7 W 12 15 1016.1 - 0.2 - - - - - - -
26/03:30pm 15.3 WNW 15 18 1016.1 - 0.2 - - - - - - -
26/03:00pm 13.7 WNW 11 15 1016.1 - 0.2 Recent precip. - - - - - -
26/02:30pm 12.6 WNW 15 23 1016.1 - 0.2 - - - - - - -
26/02:00pm 14.7 WNW 12 15 1016.0 - 0.0 - - - - - - -
26/01:30pm 13.1 W 13 16 1016.1 - 0.0 - - - - - - -
26/01:00pm 12.5 W 17 23 1016.0 - 0.0 - - - - - - -
26/12:30pm 13.5 W 13 24 1015.7 - 0.0 - - - - - - -
26/12:28pm 13.2 W 16 26 1015.7 - 0.0 - - - - - - -
26/12:00pm 14.8 W 16 19 1015.4 - 0.0 - - - - - - -
26/11:30am 14.6 WNW 17 23 1015.1 - 0.0 - - - - - - -
26/11:00am 14.5 W 19 24 1014.9 - 0.0 - - - - - - -
26/10:30am 13.8 W 19 25 1014.6 - 0.0 - - - - - - -
26/10:00am 13.6 W 16 21 1014.4 - 0.0 - - - - - - -
26/09:30am 12.4 WSW 17 20 1014.2 - 0.0 - - - - - - -
26/09:00am 12.4 WSW 15 21 1013.7 - 2.2 - - - - - - -
26/08:30am 12.9 WSW 17 22 1013.0 - 2.2 - - - - - - -
26/08:00am 12.0 WSW 13 17 1012.5 - 2.2 - - - - - - -
26/07:30am 12.0 WSW 14 21 1011.8 - 2.2 - - - - - - -
26/07:00am 12.0 W 17 21 1011.3 - 2.2 - - - - - - -
26/06:30am 11.8 W 22 28 1011.0 - 2.2 - - - - - - -
26/06:00am 11.2 WSW 14 22 1010.5 - 2.2 - - - - - - -
26/05:51am 11.4 WSW 15 21 1010.4 - 2.2 - - - - - - -
26/05:30am 10.8 W 20 27 1010.2 - 2.2 - - - - - - -
26/05:00am 11.5 W 15 23 1009.7 - 2.2 - - - - - - -
26/04:30am 11.3 WSW 13 19 1009.5 - 2.2 - - - - - - -
26/04:00am 11.5 WSW 19 24 1009.3 - 2.2 - - - - - - -
26/03:30am 11.7 W 18 24 1009.0 - 2.2 - - - - - - -
26/03:00am 11.5 WSW 18 23 1008.8 - 2.2 - - - - - - -
26/02:30am 11.8 WSW 18 29 1008.4 - 2.2 - - - - - - -
26/02:28am 11.7 WSW 18 29 1008.3 - 2.2 - - - - - - -
26/02:00am 11.0 W 17 21 1008.2 - 2.2 - - - - - - -
26/01:30am 11.1 W 23 33 1007.9 - 2.2 - - - - - - -
26/01:27am 11.8 W 22 33 1007.8 - 2.2 - - - - - - -
26/01:00am 11.6 W 18 24 1007.5 - 2.2 - - - - - - -
26/12:30am 11.3 W 19 25 1007.3 - 2.2 - - - - - - -
26/12:00am 11.0 W 19 25 1006.9 - 2.2 Rain - - - - - -
 
Date/Time
EDT
Temp

°C
Wind Pressure Rain
since 9am
mm
Weather Cloud Vis
km
Sea
Height
m
Swell
Dir
 
Speed
knots
Gust
knots
hPa Trend Height
m
Period
s
Dir
25/11:30pm 10.6 W 18 22 1006.9 - 1.6 - - - - - - -
25/11:00pm 10.9 W 19 25 1006.6 - 1.6 Rain - - - - - -
25/10:36pm 10.1 W 22 32 1006.6 - 1.4 - - - - - - -
25/10:30pm 9.9 WSW 24 32 1006.7 - 1.4 - - - - - - -
25/10:19pm 11.2 WSW 17 27 1006.2 - 0.6 - - - - - - -
25/10:00pm 11.2 WSW 20 27 1006.1 - 0.6 - - - - - - -
25/09:55pm 11.5 W 24 31 1006.0 - 0.6 - - - - - - -
25/09:30pm 11.4 WNW 19 23 1005.5 - 0.6 - - - - - - -
25/09:00pm 11.6 WNW 24 28 1005.1 - 0.6 - - - - - - -
25/08:30pm 12.1 WNW 23 27 1004.8 - 0.6 - - - - - - -
25/08:00pm 12.4 WNW 22 27 1004.6 - 0.6 - - - - - - -
25/07:30pm 12.2 W 22 28 1004.3 - 0.6 - - - - - - -
25/07:00pm 12.3 W 23 28 1003.8 - 0.6 - - - - - - -
25/06:36pm 11.1 WNW 23 33 1003.4 - 0.6 - - - - - - -
25/06:30pm 10.7 WNW 27 33 1003.4 - 0.6 - - - - - - -
25/06:00pm 13.1 W 18 24 1003.1 - 0.6 - - - - - - -
25/05:45pm 12.5 W 21 31 1003.0 - 0.6 - - - - - - -
25/05:30pm 13.8 WNW 22 27 1002.8 - 0.6 - - - - - - -
25/05:00pm 13.2 WNW 23 27 1002.5 - 0.6 - - - - - - -
25/04:30pm 13.4 WNW 27 32 1002.3 - 0.6 - - - - - - -
25/04:00pm 14.1 W 21 28 1002.0 - 0.6 Recent precip. - - - - - -
25/03:30pm 13.3 W 19 24 1001.8 - 0.6 - - - - - - -
25/03:01pm 11.2 WNW 20 24 1001.6 - 0.4 - - - - - - -
25/03:00pm 11.1 WNW 20 23 1001.6 - 0.4 Rain - - - - - -
25/02:44pm 12.5 W 23 33 1001.4 - 0.2 - - - - - - -
25/02:30pm 13.2 WNW 24 28 1001.3 - 0.2 - - - - - - -
25/02:00pm 12.4 W 17 20 1001.2 - 0.2 - - - - - - -
25/01:30pm 13.3 WNW 15 19 1001.0 - 0.2 - - - - - - -
25/01:27pm 13.0 WNW 16 20 1001.0 - 0.2 - - - - - - -
25/01:00pm 10.8 W 20 26 1000.8 - 0.2 Recent precip. - - - - - -
25/12:30pm 12.8 WNW 17 27 1000.6 - 0.0 - - - - - - -
25/12:00pm 14.1 WNW 15 18 1000.4 - 0.0 - - - - - - -
25/11:30am 11.3 WNW 23 30 1000.6 - 0.0 - - - - - - -
25/11:19am 12.8 W 19 30 1000.3 - 0.0 - - - - - - -
25/11:00am 13.2 WNW 18 23 1000.3 - 0.0 - - - - - - -
25/10:30am 13.6 WNW 19 22 1000.1 - 0.0 - - - - - - -
25/10:00am 13.3 WNW 20 23 1000.1 - 0.0 - - - - - - -
25/09:30am 13.2 WNW 16 21 1000.1 - 0.0 - - - - - - -
25/09:00am 12.2 WNW 16 19 1000.3 - 7.0 - - - - - - -
25/08:30am 11.5 WNW 19 22 999.9 - 7.0 - - - - - - -
25/08:00am 11.0 W 18 23 999.4 - 7.0 Recent precip. - - - - - -
25/07:35am 12.4 W 15 27 998.8 - 6.4 - - - - - - -
25/07:30am 12.4 WNW 14 18 998.8 - 6.4 - - - - - - -
25/07:00am 12.2 W 15 18 999.1 - 6.4 - - - - - - -
25/06:30am 12.3 W 18 22 998.6 - 6.4 - - - - - - -
25/06:00am 12.5 W 15 21 998.9 - 6.4 - - - - - - -
25/05:30am 12.1 WNW 16 19 998.5 - 6.4 - - - - - - -
25/05:00am 12.2 WNW 17 24 998.9 - 6.4 Recent precip. - - - - - -
25/04:30am 12.2 W 17 20 998.3 - 6.4 - - - - - - -
25/04:00am 12.2 W 19 22 998.3 - 6.2 Recent precip. - - - - - -
25/03:30am 12.6 W 19 23 998.3 - 6.0 - - - - - - -
25/03:00am 12.6 W 21 25 998.3 - 5.8 Recent precip. - - - - - -
25/02:30am 12.9 W 21 25 997.9 - 5.6 - - - - - - -
25/02:00am 13.1 W 19 22 997.9 - 5.6 Recent precip. - - - - - -
25/01:30am 13.5 NW 19 24 997.9 - 5.0 - - - - - - -
25/01:00am 13.6 NW 19 24 998.2 - 4.2 Rain - - - - - -
25/12:30am 13.6 NW 25 31 997.8 - 3.0 - - - - - - -
25/12:22am 13.5 NW 29 39 997.5 - 2.6 - - - - - - -
25/12:14am 14.5 NNW 21 39 997.5 - 0.4 - - - - - - -
25/12:13am 15.6 NNW 20 39 997.5 - 0.0 - - - - - - -
25/12:06am 16.0 N 17 28 996.8 - 0.0 - - - - - - -
25/12:00am 16.1 N 16 23 996.9 - 0.0 - - - - - - -
 
Date/Time
EDT
Temp

°C
Wind Pressure Rain
since 9am
mm
Weather Cloud Vis
km
Sea
Height
m
Swell
Dir
 
Speed
knots
Gust
knots
hPa Trend Height
m
Period
s
Dir
24/11:30pm 15.9 N 17 22 997.3 - 0.0 - - - - - - -
24/11:00pm 16.0 NNW 18 24 998.0 - 0.0 - - - - - - -
24/10:30pm 15.5 NNW 18 24 998.1 - 0.0 - - - - - - -
24/10:00pm 15.6 NNW 17 27 998.3 - 0.0 - - - - - - -
24/09:54pm 15.6 NNW 17 27 998.2 - 0.0 - - - - - - -
24/09:30pm 15.5 NNW 18 25 998.3 - 0.0 - - - - - - -
24/09:00pm 15.7 NNW 21 29 998.4 - 0.0 - - - - - - -
24/08:30pm 16.0 NNW 23 32 998.4 - 0.0 - - - - - - -
24/08:00pm 16.1 NNW 24 31 998.5 - 0.0 - - - - - - -
24/07:30pm 16.1 NNW 25 33 998.3 - 0.0 - - - - - - -
24/07:00pm 16.3 NNW 26 33 998.4 - 0.0 - - - - - - -
24/06:40pm 16.4 NNW 24 34 998.4 - 0.0 - - - - - - -
24/06:30pm 16.5 NNW 24 30 998.5 - 0.0 - - - - - - -
24/06:00pm 16.7 NNW 28 35 998.7 - 0.0 - - - - - - -
24/05:30pm 17.6 NNW 25 32 998.7 - 0.0 - - - - - - -
24/05:00pm 17.7 NNW 26 32 999.4 - 0.0 - - - - - - -
24/04:30pm 17.4 NNW 23 29 999.7 - 0.0 - - - - - - -
24/04:00pm 18.0 NNW 21 29 1000.3 - 0.0 - - - - - - -
24/03:30pm 18.1 NNW 22 27 1000.8 - 0.0 - - - - - - -
24/03:00pm 16.5 NW 25 30 1001.3 - 0.0 - - - - - - -
24/02:30pm 16.6 NW 24 30 1001.6 - 0.0 - - - - - - -
24/02:00pm 16.7 NW 25 30 1001.6 - 0.0 - - - - - - -
24/01:30pm 17.5 NW 23 28 1001.5 - 0.0 - - - - - - -
24/01:00pm 18.0 NNW 20 26 1001.9 - 0.0 - - - - - - -
24/12:30pm 17.9 NW 18 22 1002.6 - 0.0 - - - - - - -
24/12:00pm 17.1 NW 18 22 1003.0 - 0.0 - - - - - - -
24/11:30am 16.9 NW 17 22 1003.5 - 0.0 - - - - - - -
24/11:00am 16.4 NNW 17 22 1003.9 - 0.0 - - - - - - -
24/10:30am 16.0 NNW 16 24 1004.3 - 0.0 - - - - - - -
24/10:00am 15.4 NNW 15 21 1004.6 - 0.0 - - - - - - -
24/09:30am 14.5 NNW 13 18 1004.6 - 0.0 - - - - - - -
24/09:00am 14.4 N 13 19 1004.7 - 0.0 - - - - - - -
24/08:30am 13.7 N 11 15 1004.4 - 0.0 - - - - - - -
24/08:00am 11.9 NNE 11 13 1004.5 - 0.0 - - - - - - -
24/07:30am 9.9 NNE 11 14 1004.7 - 0.0 - - - - - - -
24/07:00am 8.3 NNE 13 15 1004.5 - 0.0 - - - - - - -
24/06:30am 7.7 NNE 12 14 1004.4 - 0.0 - - - - - - -
24/06:00am 7.8 NNE 12 14 1004.6 - 0.0 - - - - - - -
24/05:30am 8.4 NNE 13 15 1004.8 - 0.0 - - - - - - -
24/05:00am 8.1 NNE 13 15 1004.8 - 0.0 - - - - - - -
24/04:30am 7.9 NNE 13 15 1004.9 - 0.0 - - - - - - -
24/04:00am 8.3 NNE 13 15 1005.2 - 0.0 - - - - - - -
24/03:30am 8.2 NNE 13 17 1005.5 - 0.0 - - - - - - -
24/03:00am 9.0 N 11 13 1005.8 - 0.0 - - - - - - -
24/02:30am 8.8 NNE 12 14 1006.3 - 0.0 - - - - - - -
24/02:00am 9.6 N 12 14 1006.7 - 0.0 - - - - - - -
24/01:30am 9.5 N 13 15 1007.0 - 0.0 - - - - - - -
24/01:00am 9.2 NNE 12 14 1007.1 - 0.0 - - - - - - -
24/12:30am 9.3 NNE 11 13 1007.2 - 0.0 - - - - - - -
24/12:00am 9.6 NNE 11 13 1007.1 - 0.0 - - - - - - -
 
Date/Time
EDT
Temp

°C
Wind Pressure Rain
since 9am
mm
Weather Cloud Vis
km
Sea
Height
m
Swell
Dir
 
Speed
knots
Gust
knots
hPa Trend Height
m
Period
s
Dir
23/11:30pm 9.7 NNE 11 14 1007.4 - 0.0 - - - - - - -
23/11:00pm 10.3 NNE 10 12 1007.6 - 0.0 - - - - - - -
23/10:30pm 11.9 NNW 8 13 1007.5 - 0.0 - - - - - - -
23/10:00pm 13.4 NW 10 13 1007.4 - 0.0 - - - - - - -
23/09:30pm 13.2 NW 10 13 1007.2 - 0.0 - - - - - - -
23/09:00pm 13.1 WNW 10 12 1006.9 - 0.0 - - - - - - -
23/08:30pm 13.7 WNW 12 15 1006.8 - 0.0 - - - - - - -
23/08:00pm 13.7 WNW 14 18 1006.9 - 0.0 - - - - - - -
23/07:30pm 14.1 WNW 16 19 1006.9 - 0.0 - - - - - - -

Other Formats:

Comma delimited format used in spreadsheet applications
http://www.bom.gov.au/fwo/IDT60701/IDT60701.95961.axf

JavaScript Object Notation format (JSON) in row-major order
http://www.bom.gov.au/fwo/IDT60701/IDT60701.95961.json